Terminal Aerodrome Forecast
Issued by NWS

Home | Current Version | Previous Version | Text Only | Print | Product List | Glossary On
Versions: 1 2 3 4 5 6 7 8 9 10 11 12
000
FTUS42 TJSJ 261120
TAFJBQ
TAF
TJBQ 261120Z 2612/2712 08004KT P6SM FEW030
     FM261500 06012KT P6SM VCSH FEW025 SCT040
     FM261730 07012KT P6SM VCTS SCT025CB BKN040
     FM270000 VRB04KT P6SM FEW030
      AMD NOT SKED 2702/2711=

USA.gov is the U.S. government's official web portal to all federal, state and local government web resources and services.